Time;durP1;ratioP1;P1;durP2;ratioP2;P2;SDS_P1;SDS_P2;PMS_P1;PMS_P2;Temp;Humidity;BMP_temperature;BMP_pressure;BME280_temperature;BME280_humidity;BME280_pressure;Samples;Min_cycle;Max_cycle;Signal;HPM_P1;HPM_P2
2022/09/04 00:00:14;;;;;;;2.70;2.50;;;20.40;53.00;;;;;;5985089;23;20154;-87
2022/09/04 00:03:05;;;;;;;2.65;2.40;;;20.40;53.00;;;;;;6009063;23;20161;-87
2022/09/04 00:05:36;;;;;;;3.05;2.42;;;20.40;53.00;;;;;;6025975;23;21179;-86
2022/09/04 00:08:21;;;;;;;2.80;2.50;;;20.40;53.00;;;;;;6032785;23;20162;-87
2022/09/04 00:11:02;;;;;;;2.50;2.20;;;20.40;53.00;;;;;;6011397;23;20131;-86
2022/09/04 00:13:32;;;;;;;2.25;2.05;;;20.40;53.00;;;;;;6003814;23;20173;-87
2022/09/04 00:16:04;;;;;;;2.65;2.40;;;20.40;53.00;;;;;;5981178;24;20211;-87
2022/09/04 00:18:34;;;;;;;2.58;2.35;;;20.40;53.00;;;;;;6004008;23;20225;-87
2022/09/04 00:21:26;;;;;;;2.40;2.20;;;20.40;53.00;;;;;;6004020;23;20166;-86
2022/09/04 00:24:02;;;;;;;2.53;2.33;;;20.40;53.10;;;;;;6004106;23;20203;-86
2022/09/04 00:26:55;;;;;;;3.30;2.40;;;20.40;53.00;;;;;;5961596;23;20162;-87
2022/09/04 00:29:49;;;;;;;2.67;2.35;;;20.40;53.00;;;;;;5989165;23;20638;-87
2022/09/04 00:32:37;;;;;;;2.40;2.20;;;20.40;53.00;;;;;;5969941;23;20634;-87
2022/09/04 00:35:15;;;;;;;3.00;2.58;;;20.40;53.00;;;;;;6032541;23;20158;-87
2022/09/04 00:37:48;;;;;;;2.47;2.28;;;20.40;53.00;;;;;;6032266;23;20627;-86
2022/09/04 00:40:24;;;;;;;2.53;2.33;;;20.30;53.00;;;;;;6014125;23;20166;-87
2022/09/04 00:43:14;;;;;;;2.50;2.30;;;20.40;53.00;;;;;;6015446;23;20279;-87
2022/09/04 00:46:19;;;;;;;2.78;2.50;;;20.30;53.00;;;;;;6047580;23;20197;-87
2022/09/04 00:48:57;;;;;;;2.80;2.30;;;20.40;53.10;;;;;;6044179;23;20141;-87
2022/09/04 00:51:32;;;;;;;2.72;2.50;;;20.40;53.00;;;;;;6066183;23;20553;-86
2022/09/04 00:54:17;;;;;;;2.60;2.40;;;20.40;53.00;;;;;;6067661;23;20171;-86
2022/09/04 00:57:26;;;;;;;2.38;2.17;;;20.40;53.00;;;;;;6078567;23;20619;-87
2022/09/04 01:00:07;;;;;;;2.50;2.30;;;20.40;53.10;;;;;;6102092;23;20156;-87
2022/09/04 01:02:50;;;;;;;2.40;2.20;;;20.30;53.00;;;;;;6103597;23;20171;-87
2022/09/04 01:05:58;;;;;;;2.58;2.38;;;20.30;53.00;;;;;;6128851;23;20129;-87
2022/09/04 01:08:41;;;;;;;2.40;2.20;;;20.40;53.10;;;;;;6131105;23;20143;-87
2022/09/04 01:11:32;;;;;;;2.40;2.20;;;20.40;53.10;;;;;;6129601;23;20183;-87
2022/09/04 01:14:24;;;;;;;2.90;2.60;;;20.40;53.10;;;;;;6126306;23;20164;-87
2022/09/04 01:17:13;;;;;;;2.20;1.98;;;20.40;53.10;;;;;;6106574;23;20164;-86
2022/09/04 01:19:55;;;;;;;3.03;2.38;;;20.40;53.10;;;;;;6129208;23;20191;-87
2022/09/04 01:22:45;;;;;;;2.60;2.40;;;20.30;53.10;;;;;;6036099;23;20537;-87
2022/09/04 01:25:40;;;;;;;2.97;2.50;;;20.30;53.10;;;;;;6061226;23;20238;-87
2022/09/04 01:28:25;;;;;;;2.65;2.38;;;20.40;53.10;;;;;;6060400;23;20486;-87
2022/09/04 01:31:00;;;;;;;2.40;2.20;;;20.40;53.10;;;;;;6104610;23;20194;-87
2022/09/04 01:33:31;;;;;;;2.63;2.22;;;20.30;53.10;;;;;;6102968;23;20169;-86
2022/09/04 01:36:21;;;;;;;2.60;2.40;;;20.30;53.10;;;;;;6126772;23;20187;-87
2022/09/04 01:38:52;;;;;;;2.97;2.40;;;20.30;53.10;;;;;;6085812;23;20234;-86
2022/09/04 01:41:19;;;;;;;2.90;2.58;;;20.40;53.10;;;;;;6102806;23;20171;-87
2022/09/04 01:43:45;;;;;;;2.45;2.25;;;20.30;53.10;;;;;;6126623;23;20549;-87
2022/09/04 01:46:23;;;;;;;2.38;2.17;;;20.30;53.10;;;;;;6101799;23;20167;-86
2022/09/04 01:49:24;;;;;;;2.42;2.22;;;20.30;53.10;;;;;;6101851;23;20611;-87
2022/09/04 01:52:14;;;;;;;2.20;2.00;;;20.30;53.10;;;;;;6126432;23;20163;-87
2022/09/04 01:54:52;;;;;;;2.88;2.50;;;20.30;53.10;;;;;;6126820;23;20496;-87
2022/09/04 01:57:34;;;;;;;2.30;2.10;;;20.30;53.10;;;;;;6095240;23;20192;-87
2022/09/04 02:00:16;;;;;;;2.60;2.40;;;20.30;53.10;;;;;;6073884;23;20180;-87
2022/09/04 02:02:53;;;;;;;2.50;2.30;;;20.50;53.20;;;;;;6072021;23;20181;-87
2022/09/04 02:05:30;;;;;;;2.60;2.40;;;20.30;53.20;;;;;;6048754;23;20572;-87
2022/09/04 02:08:21;;;;;;;2.20;2.00;;;20.30;53.20;;;;;;5986124;23;20227;-87
2022/09/04 02:11:04;;;;;;;3.10;2.50;;;20.30;53.20;;;;;;5970796;23;20190;-86
2022/09/04 02:14:03;;;;;;;2.80;2.15;;;20.30;53.10;;;;;;5981750;24;20167;-87
2022/09/04 02:16:55;;;;;;;2.72;2.20;;;20.40;53.20;;;;;;5940798;24;20191;-87
2022/09/04 02:19:38;;;;;;;2.42;2.22;;;20.30;53.20;;;;;;5961377;24;20152;-87
2022/09/04 02:22:19;;;;;;;2.40;2.20;;;20.30;53.10;;;;;;5981795;24;20182;-87
2022/09/04 02:24:57;;;;;;;3.92;2.22;;;20.30;53.10;;;;;;5958803;24;20162;-87
2022/09/04 02:27:40;;;;;;;2.50;2.20;;;20.40;53.20;;;;;;5959733;24;20155;-87
2022/09/04 02:30:15;;;;;;;2.45;2.15;;;20.40;53.20;;;;;;5961007;24;20148;-87
2022/09/04 02:33:24;;;;;;;2.63;2.42;;;20.30;53.20;;;;;;5913598;24;20166;-88
2022/09/04 02:36:15;;;;;;;2.80;2.22;;;20.30;53.10;;;;;;5984421;23;20563;-87
2022/09/04 02:39:17;;;;;;;2.63;2.42;;;20.30;53.20;;;;;;5981071;23;20259;-87
2022/09/04 02:42:15;;;;;;;2.35;2.15;;;20.30;53.20;;;;;;5981691;24;20226;-87
2022/09/04 02:45:04;;;;;;;2.50;2.30;;;20.30;53.20;;;;;;6007708;23;20157;-87
2022/09/04 02:47:41;;;;;;;2.42;2.20;;;20.30;53.20;;;;;;6035652;23;20512;-86
2022/09/04 02:50:46;;;;;;;2.80;2.30;;;20.30;53.20;;;;;;6001772;23;20179;-87
2022/09/04 02:53:32;;;;;;;2.28;2.08;;;20.40;53.20;;;;;;6047060;23;20231;-87
2022/09/04 02:56:35;;;;;;;2.45;2.25;;;20.30;53.20;;;;;;6071332;23;20173;-87
2022/09/04 02:59:35;;;;;;;2.47;2.28;;;20.40;53.30;;;;;;6071113;23;20211;-87
2022/09/04 03:02:10;;;;;;;2.15;1.95;;;20.30;53.20;;;;;;6095032;23;20153;-87
2022/09/04 03:04:50;;;;;;;2.55;1.98;;;20.30;53.20;;;;;;6008830;23;20166;-87
2022/09/04 03:07:20;;;;;;;2.72;2.40;;;20.30;53.20;;;;;;5942533;23;20159;-86
2022/09/04 03:09:52;;;;;;;2.45;2.22;;;20.30;53.20;;;;;;6006433;23;20189;-87
2022/09/04 03:12:39;;;;;;;2.33;2.13;;;20.30;53.20;;;;;;6019049;23;20550;-87
2022/09/04 03:15:38;;;;;;;2.40;2.20;;;20.30;53.20;;;;;;6042528;23;20157;-87
2022/09/04 03:18:25;;;;;;;2.40;2.13;;;20.30;53.20;;;;;;6042078;23;20221;-87
2022/09/04 03:21:05;;;;;;;2.35;2.15;;;20.30;53.20;;;;;;6061478;23;20188;-87
2022/09/04 03:23:55;;;;;;;2.33;2.13;;;20.30;53.30;;;;;;6013422;23;20173;-86
2022/09/04 03:26:28;;;;;;;2.40;2.20;;;20.30;53.20;;;;;;6000673;23;20596;-86
2022/09/04 03:29:05;;;;;;;2.60;2.13;;;20.30;53.30;;;;;;5979946;24;20167;-87
2022/09/04 03:32:06;;;;;;;2.22;2.03;;;20.30;53.20;;;;;;5979626;24;20167;-87
2022/09/04 03:34:56;;;;;;;2.40;2.20;;;20.40;53.30;;;;;;5983928;23;20242;-87
2022/09/04 03:37:31;;;;;;;2.17;1.98;;;20.30;53.30;;;;;;6029960;23;20616;-87
2022/09/04 03:40:27;;;;;;;2.55;2.10;;;20.30;53.30;;;;;;5985226;23;20205;-87
2022/09/04 03:43:08;;;;;;;2.85;2.55;;;20.30;53.30;;;;;;5985779;23;20198;-87
2022/09/04 03:45:48;;;;;;;2.50;2.22;;;20.30;53.30;;;;;;6055062;23;20598;-87
2022/09/04 03:48:40;;;;;;;2.13;1.92;;;20.30;53.30;;;;;;6031977;23;20255;-87
2022/09/04 03:51:26;;;;;;;2.20;2.00;;;20.30;53.30;;;;;;6048275;23;20162;-87
2022/09/04 03:54:11;;;;;;;2.70;2.10;;;20.30;53.30;;;;;;6069760;23;20232;-87
2022/09/04 03:57:06;;;;;;;2.28;2.00;;;20.30;53.30;;;;;;6054348;23;20207;-86
2022/09/04 04:00:10;;;;;;;2.33;2.13;;;20.30;53.30;;;;;;6129712;23;20166;-87
2022/09/04 04:02:48;;;;;;;2.55;2.17;;;20.30;53.30;;;;;;6101855;23;20156;-87
2022/09/04 04:05:36;;;;;;;2.22;2.00;;;20.30;53.30;;;;;;6036661;23;20158;-87
2022/09/04 04:08:29;;;;;;;2.10;1.90;;;20.30;53.30;;;;;;5915055;24;20640;-87
2022/09/04 04:11:17;;;;;;;2.17;1.98;;;20.30;53.30;;;;;;5960729;24;20181;-87
2022/09/04 04:14:19;;;;;;;2.38;2.00;;;20.30;53.30;;;;;;5960973;24;20266;-86
2022/09/04 04:17:16;;;;;;;2.30;2.05;;;20.30;53.30;;;;;;5961285;24;20189;-87
2022/09/04 04:19:52;;;;;;;2.20;2.00;;;20.30;53.30;;;;;;5957528;24;20160;-87
2022/09/04 04:22:40;;;;;;;2.10;1.90;;;20.30;53.30;;;;;;5957473;24;20615;-87
2022/09/04 04:25:41;;;;;;;2.42;2.22;;;20.30;53.30;;;;;;5960038;24;20250;-87
2022/09/04 04:28:27;;;;;;;2.25;1.88;;;20.30;53.30;;;;;;5961041;24;20285;-87
2022/09/04 04:31:01;;;;;;;2.80;2.20;;;20.30;53.30;;;;;;5959641;24;20639;-86
2022/09/04 04:33:51;;;;;;;2.78;2.25;;;20.30;53.30;;;;;;5958922;24;20246;-87
2022/09/04 04:36:32;;;;;;;2.33;2.00;;;20.30;53.30;;;;;;6026934;23;20177;-86
2022/09/04 04:39:08;;;;;;;2.40;2.00;;;20.30;53.30;;;;;;6019776;23;20535;-87
2022/09/04 04:42:04;;;;;;;2.30;2.10;;;20.30;53.30;;;;;;6101076;23;20160;-87
2022/09/04 04:48:16;;;;;;;2.30;2.10;;;20.30;53.20;;;;;;6044484;23;20168;-87
2022/09/04 04:51:11;;;;;;;2.10;1.90;;;20.30;53.20;;;;;;6054850;23;20168;-87
2022/09/04 04:54:07;;;;;;;1.92;1.83;;;20.30;53.20;;;;;;6034531;23;20164;-87
2022/09/04 04:56:58;;;;;;;2.15;1.90;;;20.30;53.20;;;;;;6073016;23;20177;-87
2022/09/04 04:59:39;;;;;;;1.95;1.80;;;20.30;53.20;;;;;;6049240;23;20245;-88
2022/09/04 05:02:21;;;;;;;1.95;1.80;;;20.30;53.10;;;;;;6072587;23;20153;-87
2022/09/04 05:05:06;;;;;;;2.20;2.00;;;20.30;53.10;;;;;;6070585;23;20159;-86
2022/09/04 05:07:48;;;;;;;2.30;1.90;;;20.30;53.10;;;;;;6048783;23;20144;-86
2022/09/04 05:10:20;;;;;;;2.28;2.08;;;20.30;52.90;;;;;;6073276;23;20227;-86
2022/09/04 05:13:05;;;;;;;1.90;1.70;;;20.30;53.20;;;;;;6071008;23;20462;-86
2022/09/04 05:16:01;;;;;;;1.90;1.80;;;20.30;53.10;;;;;;6066340;23;20160;-87
2022/09/04 05:18:43;;;;;;;1.83;1.63;;;20.30;53.10;;;;;;6040808;23;20554;-87
2022/09/04 05:21:22;;;;;;;2.00;1.70;;;20.30;53.10;;;;;;6125050;23;20179;-86
2022/09/04 05:24:11;;;;;;;2.17;1.98;;;20.30;53.10;;;;;;6101035;23;20156;-86
2022/09/04 05:26:58;;;;;;;2.30;1.88;;;20.30;53.20;;;;;;5946744;23;20162;-87
2022/09/04 05:29:46;;;;;;;2.10;1.90;;;20.30;53.10;;;;;;5996046;23;20609;-86
2022/09/04 05:32:42;;;;;;;2.15;1.95;;;20.30;53.10;;;;;;6043806;23;20571;-86
2022/09/04 05:35:35;;;;;;;2.28;2.03;;;20.30;53.20;;;;;;6049747;23;20162;-87
2022/09/04 05:38:21;;;;;;;2.10;1.90;;;20.40;53.20;;;;;;6050221;23;20173;-87
2022/09/04 05:41:13;;;;;;;2.08;1.88;;;20.30;53.10;;;;;;6071926;23;20243;-87
2022/09/04 05:43:58;;;;;;;2.10;1.77;;;20.30;53.20;;;;;;6071949;23;20239;-87
2022/09/04 05:46:46;;;;;;;2.13;1.92;;;20.30;53.10;;;;;;6010055;23;20162;-87
2022/09/04 05:49:49;;;;;;;1.77;1.58;;;20.30;53.20;;;;;;5963778;23;20182;-87
2022/09/04 05:52:34;;;;;;;2.13;1.92;;;20.30;53.10;;;;;;5986624;23;20170;-87
2022/09/04 05:55:31;;;;;;;2.67;2.15;;;20.30;53.10;;;;;;5986903;23;20162;-87
2022/09/04 05:58:30;;;;;;;2.03;1.73;;;20.30;53.20;;;;;;5991208;23;20154;-87
2022/09/04 06:01:23;;;;;;;2.00;1.80;;;20.30;53.20;;;;;;5943074;24;20160;-87
2022/09/04 06:04:16;;;;;;;2.13;1.92;;;20.30;53.10;;;;;;5960220;23;20230;-87
2022/09/04 06:07:19;;;;;;;2.33;2.00;;;20.30;53.30;;;;;;5986546;23;20170;-86
2022/09/04 06:10:03;;;;;;;2.05;1.85;;;20.30;53.30;;;;;;5964878;23;20169;-86
2022/09/04 06:12:59;;;;;;;1.83;1.73;;;20.30;53.30;;;;;;5984469;23;20242;-86
2022/09/04 06:15:27;;;;;;;1.92;1.73;;;20.30;53.30;;;;;;5991597;23;20218;-87
2022/09/04 06:18:05;;;;;;;2.00;1.80;;;20.30;53.30;;;;;;6048256;23;20192;-86
2022/09/04 06:20:51;;;;;;;2.08;1.80;;;20.30;53.30;;;;;;6045148;23;20477;-86
2022/09/04 06:23:42;;;;;;;1.80;1.70;;;20.30;53.30;;;;;;6042967;23;20142;-86
2022/09/04 06:26:37;;;;;;;2.00;1.80;;;20.30;53.30;;;;;;5995998;23;20610;-85
2022/09/04 06:29:29;;;;;;;1.90;1.73;;;20.30;53.30;;;;;;5999968;23;20165;-86
2022/09/04 06:32:29;;;;;;;1.80;1.70;;;20.30;53.40;;;;;;6035291;23;20548;-86
2022/09/04 06:35:32;;;;;;;1.67;1.58;;;20.30;53.30;;;;;;5994966;23;20626;-87
2022/09/04 06:38:38;;;;;;;2.00;1.80;;;20.30;53.30;;;;;;6040759;23;20154;-86
2022/09/04 06:41:09;;;;;;;2.47;2.05;;;20.30;53.30;;;;;;6018278;23;20166;-86
2022/09/04 06:43:54;;;;;;;1.95;1.75;;;20.30;53.30;;;;;;6009248;23;20159;-86
2022/09/04 06:46:28;;;;;;;1.60;1.50;;;20.30;53.30;;;;;;5986173;23;20238;-85
2022/09/04 06:49:17;;;;;;;1.75;1.63;;;20.30;54.00;;;;;;5976042;24;20581;-86
2022/09/04 06:51:54;;;;;;;2.10;1.90;;;20.30;53.30;;;;;;5976545;24;20160;-86
2022/09/04 06:55:05;;;;;;;2.20;2.00;;;20.30;53.40;;;;;;5929617;24;20673;-86
2022/09/04 06:58:01;;;;;;;1.85;1.75;;;20.30;53.50;;;;;;5906469;24;20207;-87
2022/09/04 07:00:33;;;;;;;2.60;1.95;;;20.30;53.40;;;;;;5952924;24;20247;-87
2022/09/04 07:03:21;;;;;;;2.00;1.80;;;20.30;53.40;;;;;;5887070;24;20220;-87
2022/09/04 07:05:55;;;;;;;2.20;1.98;;;20.30;53.40;;;;;;5919734;23;20657;-86
2022/09/04 07:08:54;;;;;;;2.08;1.88;;;20.30;53.40;;;;;;5990646;23;20161;-86
2022/09/04 07:11:40;;;;;;;2.15;1.85;;;20.30;53.40;;;;;;5952399;24;20163;-86
2022/09/04 07:14:20;;;;;;;1.98;1.70;;;20.40;53.40;;;;;;5953517;24;20171;-86
2022/09/04 07:17:10;;;;;;;1.70;1.60;;;20.30;53.40;;;;;;5888354;24;20647;-86
2022/09/04 07:20:21;;;;;;;1.67;1.52;;;20.30;53.30;;;;;;5953105;24;20293;-85
2022/09/04 07:23:05;;;;;;;2.38;1.50;;;20.30;53.40;;;;;;5966444;24;20159;-85
2022/09/04 07:25:48;;;;;;;1.83;1.70;;;20.30;53.30;;;;;;5914284;24;20160;-86
2022/09/04 07:28:30;;;;;;;1.67;1.45;;;20.30;53.30;;;;;;5902465;24;20169;-85
2022/09/04 07:31:07;;;;;;;1.50;1.40;;;20.30;53.30;;;;;;5905339;24;20153;-86
2022/09/04 07:33:55;;;;;;;3.85;1.55;;;20.20;53.20;;;;;;5838866;24;20171;-87
2022/09/04 07:36:53;;;;;;;1.27;1.17;;;20.30;53.30;;;;;;5929488;24;20668;-87
2022/09/04 07:39:38;;;;;;;2.40;1.27;;;20.20;53.20;;;;;;5933005;24;20220;-85
2022/09/04 07:42:14;;;;;;;1.30;1.20;;;20.20;53.10;;;;;;5966211;23;20568;-86
2022/09/04 07:45:04;;;;;;;1.35;1.15;;;20.20;53.00;;;;;;6037167;23;20161;-86
2022/09/04 07:47:46;;;;;;;2.22;1.30;;;20.20;52.90;;;;;;5957918;24;20194;-86
2022/09/04 07:50:43;;;;;;;1.17;1.08;;;20.30;53.00;;;;;;5936326;24;20184;-86
2022/09/04 07:53:43;;;;;;;1.25;1.00;;;20.20;52.80;;;;;;5940830;24;20167;-85
2022/09/04 07:56:21;;;;;;;1.85;1.10;;;20.20;52.70;;;;;;5934755;24;20195;-86
2022/09/04 07:59:19;;;;;;;1.95;0.90;;;20.20;52.70;;;;;;5944629;23;20166;-87
2022/09/04 08:01:56;;;;;;;1.20;1.10;;;20.20;52.60;;;;;;5902558;24;20273;-87
2022/09/04 08:04:49;;;;;;;1.05;0.93;;;20.20;52.60;;;;;;5902769;24;20603;-86
2022/09/04 08:07:46;;;;;;;1.90;0.90;;;20.20;52.50;;;;;;5902594;24;20221;-86
2022/09/04 08:10:25;;;;;;;1.02;0.93;;;20.20;52.50;;;;;;5888396;24;20175;-87
2022/09/04 08:13:12;;;;;;;0.70;0.70;;;20.30;52.50;;;;;;5903057;24;20169;-86
2022/09/04 08:15:41;;;;;;;1.02;0.93;;;20.20;52.40;;;;;;5952366;24;20163;-87
2022/09/04 08:18:36;;;;;;;0.70;0.65;;;20.30;52.30;;;;;;6010141;23;20153;-86
2022/09/04 08:21:26;;;;;;;0.95;0.68;;;20.20;52.10;;;;;;6018391;23;20205;-85
2022/09/04 08:24:21;;;;;;;0.82;0.80;;;20.20;52.10;;;;;;6018087;23;20157;-86
2022/09/04 08:27:13;;;;;;;0.80;0.80;;;20.20;52.10;;;;;;6045842;23;20184;-86
2022/09/04 08:29:50;;;;;;;0.93;0.85;;;20.20;51.90;;;;;;5990487;23;20517;-86
2022/09/04 08:32:42;;;;;;;1.00;0.90;;;20.20;51.80;;;;;;6010421;23;20160;-86
2022/09/04 08:35:20;;;;;;;1.00;0.90;;;20.30;51.90;;;;;;6075876;23;20238;-86
2022/09/04 08:38:18;;;;;;;0.70;0.70;;;20.30;51.70;;;;;;6047940;23;20259;-86
2022/09/04 08:41:09;;;;;;;0.73;0.73;;;20.30;51.60;;;;;;6014669;23;20177;-87
2022/09/04 08:44:00;;;;;;;0.63;0.63;;;20.30;51.60;;;;;;5986603;23;20163;-86
2022/09/04 08:46:53;;;;;;;0.80;0.80;;;20.30;51.40;;;;;;5981884;24;20168;-88
2022/09/04 08:49:53;;;;;;;0.57;0.50;;;20.30;51.20;;;;;;5906401;24;20296;-87
2022/09/04 08:52:41;;;;;;;0.85;0.80;;;20.30;51.20;;;;;;5871736;24;20197;-86
2022/09/04 08:55:28;;;;;;;0.75;0.75;;;20.30;51.20;;;;;;5849829;24;20170;-86
2022/09/04 08:58:24;;;;;;;0.85;0.85;;;20.30;51.00;;;;;;5848218;24;20199;-86
2022/09/04 09:01:10;;;;;;;1.10;0.85;;;20.40;50.70;;;;;;5891726;24;20172;-86
2022/09/04 09:03:53;;;;;;;0.82;0.75;;;20.40;50.70;;;;;;5904320;24;20222;-86
2022/09/04 09:06:55;;;;;;;1.10;0.93;;;20.40;50.60;;;;;;5928622;24;20566;-87
2022/09/04 09:10:02;;;;;;;1.13;0.77;;;20.40;50.50;;;;;;5927581;24;20152;-87
2022/09/04 09:13:02;;;;;;;0.60;0.57;;;20.40;50.50;;;;;;5933374;24;20231;-86
2022/09/04 09:15:47;;;;;;;0.80;0.70;;;20.40;50.30;;;;;;5971085;24;20156;-86
2022/09/04 09:18:34;;;;;;;0.90;0.90;;;20.40;50.20;;;;;;5956459;23;20197;-88
2022/09/04 09:21:10;;;;;;;0.80;0.80;;;20.40;50.10;;;;;;6027538;23;20162;-86
2022/09/04 09:23:53;;;;;;;0.95;0.60;;;20.40;50.10;;;;;;6015759;23;20506;-86
2022/09/04 09:26:29;;;;;;;0.70;0.70;;;20.50;50.00;;;;;;6039949;23;20194;-87
2022/09/04 09:29:18;;;;;;;0.63;0.60;;;20.50;49.70;;;;;;5959989;24;20173;-86
2022/09/04 09:32:27;;;;;;;0.60;0.60;;;20.50;49.80;;;;;;5937148;24;20644;-86
2022/09/04 09:35:12;;;;;;;0.70;0.70;;;20.50;49.60;;;;;;5960948;23;20168;-86
2022/09/04 09:38:12;;;;;;;0.90;0.73;;;20.50;49.40;;;;;;5990402;23;20190;-86
2022/09/04 09:41:13;;;;;;;1.20;0.93;;;20.50;49.40;;;;;;5991285;23;20151;-86
2022/09/04 09:44:05;;;;;;;0.60;0.60;;;20.50;49.70;;;;;;6010745;23;20154;-87
2022/09/04 09:46:49;;;;;;;0.60;0.60;;;20.50;49.60;;;;;;5987487;23;20167;-87
2022/09/04 09:49:53;;;;;;;0.60;0.60;;;20.50;49.50;;;;;;5989285;23;20173;-86
2022/09/04 09:52:40;;;;;;;0.88;0.88;;;20.50;49.40;;;;;;6010661;23;20158;-86
2022/09/04 09:55:43;;;;;;;0.60;0.60;;;20.50;49.60;;;;;;5987982;23;20159;-86
2022/09/04 09:58:30;;;;;;;0.70;0.70;;;20.50;49.60;;;;;;5989406;23;20887;-86
2022/09/04 10:01:27;;;;;;;1.10;1.00;;;20.50;49.50;;;;;;6011272;23;20198;-86
2022/09/04 10:04:10;;;;;;;0.73;0.65;;;20.50;49.40;;;;;;6041315;23;20154;-86
2022/09/04 10:06:54;;;;;;;1.80;0.70;;;20.50;49.20;;;;;;6044609;23;20205;-86
2022/09/04 10:09:54;;;;;;;0.70;0.70;;;20.50;49.10;;;;;;6093432;23;20165;-86
2022/09/04 10:12:38;;;;;;;1.45;0.60;;;20.50;49.00;;;;;;6067195;23;20491;-86
2022/09/04 10:15:28;;;;;;;0.60;0.60;;;20.50;48.70;;;;;;6038532;23;20168;-86
2022/09/04 10:18:21;;;;;;;2.15;0.70;;;20.50;48.60;;;;;;6015214;23;20335;-85
2022/09/04 10:21:19;;;;;;;0.63;0.63;;;20.60;48.60;;;;;;6015388;23;20195;-86
2022/09/04 10:24:17;;;;;;;0.50;0.50;;;20.60;48.30;;;;;;6014866;23;20162;-85
2022/09/04 10:27:03;;;;;;;0.60;0.50;;;20.60;48.30;;;;;;6019370;23;20160;-86
2022/09/04 10:30:04;;;;;;;0.43;0.43;;;20.60;48.30;;;;;;6071528;23;20156;-86
2022/09/04 10:32:54;;;;;;;0.60;0.57;;;20.60;48.30;;;;;;6095455;23;20144;-86
2022/09/04 10:35:30;;;;;;;0.60;0.60;;;20.60;48.20;;;;;;6095228;23;20615;-87
2022/09/04 10:38:20;;;;;;;2.67;0.70;;;20.60;48.20;;;;;;6023722;23;20195;-86
2022/09/04 10:41:09;;;;;;;1.00;0.50;;;20.60;48.30;;;;;;6076173;23;20461;-86
2022/09/04 10:43:59;;;;;;;0.60;0.60;;;20.60;48.20;;;;;;6095244;23;20200;-86
2022/09/04 10:46:50;;;;;;;0.57;0.57;;;20.60;48.00;;;;;;6119813;23;20190;-86
2022/09/04 10:49:39;;;;;;;0.40;0.40;;;20.60;47.90;;;;;;6156161;23;20595;-86
2022/09/04 10:52:47;;;;;;;0.60;0.60;;;20.70;47.90;;;;;;6106536;23;20503;-86
2022/09/04 10:55:26;;;;;;;0.63;0.63;;;20.70;47.90;;;;;;6156968;23;20148;-86
2022/09/04 10:58:05;;;;;;;0.50;0.50;;;20.60;48.00;;;;;;6083315;23;20193;-86
2022/09/04 11:00:49;;;;;;;0.47;0.40;;;20.60;47.90;;;;;;6107074;23;20131;-85
2022/09/04 11:03:32;;;;;;;0.60;0.60;;;20.60;48.00;;;;;;6109082;23;20159;-86
2022/09/04 11:06:38;;;;;;;0.40;0.40;;;20.60;48.10;;;;;;6108825;23;20128;-85
2022/09/04 11:09:27;;;;;;;1.20;0.70;;;20.60;48.10;;;;;;6085623;23;20162;-86
2022/09/04 11:12:27;;;;;;;0.40;0.40;;;20.70;48.10;;;;;;6085027;23;20654;-86
2022/09/04 11:15:15;;;;;;;0.47;0.47;;;20.70;48.40;;;;;;6105791;23;20229;-87
2022/09/04 11:18:00;;;;;;;0.45;0.40;;;20.70;48.10;;;;;;6156582;23;20222;-86
2022/09/04 11:21:08;;;;;;;0.50;0.50;;;20.70;48.20;;;;;;6106143;23;20586;-86
2022/09/04 11:24:14;;;;;;;1.13;0.40;;;20.70;48.30;;;;;;6138823;23;20174;-85
2022/09/04 11:27:19;;;;;;;1.27;0.40;;;20.70;48.20;;;;;;6093971;23;20169;-85
2022/09/04 11:30:08;;;;;;;0.40;0.40;;;20.70;48.10;;;;;;6130307;23;20182;-87
2022/09/04 11:33:09;;;;;;;0.40;0.40;;;20.60;47.80;;;;;;6134796;23;20178;-85
2022/09/04 11:36:16;;;;;;;;;;;;;;;;;;;;;
2022/09/04 11:39:01;;;;;;;0.50;0.50;;;20.70;47.50;;;;;;5969842;23;20277;-86
2022/09/04 11:41:46;;;;;;;0.70;0.40;;;20.70;47.50;;;;;;6007264;23;20150;-86
2022/09/04 11:44:24;;;;;;;0.40;0.40;;;20.70;47.60;;;;;;6007786;23;20157;-86
2022/09/04 11:47:27;;;;;;;0.50;0.50;;;20.70;47.70;;;;;;6009052;23;20158;-84
2022/09/04 11:50:06;;;;;;;0.40;0.40;;;20.70;47.80;;;;;;5985654;23;20169;-85
2022/09/04 11:52:49;;;;;;;0.40;0.40;;;20.70;47.90;;;;;;6032877;23;20158;-85
2022/09/04 11:55:33;;;;;;;0.63;0.50;;;20.70;47.90;;;;;;6030959;23;20198;-85
2022/09/04 11:58:27;;;;;;;0.47;0.47;;;20.70;48.00;;;;;;6032772;23;20655;-85
2022/09/04 12:01:15;;;;;;;0.50;0.50;;;20.70;48.10;;;;;;5953216;24;20164;-85
2022/09/04 12:04:06;;;;;;;0.40;0.40;;;20.70;48.30;;;;;;5973637;24;20163;-86
2022/09/04 12:07:04;;;;;;;0.30;0.30;;;20.70;48.30;;;;;;5975780;24;20160;-84
2022/09/04 12:09:54;;;;;;;0.50;0.50;;;20.60;48.30;;;;;;5985956;23;20170;-86
2022/09/04 12:12:56;;;;;;;0.55;0.32;;;20.70;48.40;;;;;;6010639;23;20188;-86
2022/09/04 12:15:37;;;;;;;0.70;0.50;;;20.70;48.50;;;;;;6037323;23;20161;-86
2022/09/04 12:18:20;;;;;;;0.70;0.70;;;20.70;48.60;;;;;;5968799;23;20197;-86
2022/09/04 12:21:05;;;;;;;0.52;0.50;;;20.70;48.60;;;;;;6035022;23;20154;-86
2022/09/04 12:23:48;;;;;;;0.50;0.50;;;20.70;48.70;;;;;;6037082;23;20182;-85
2022/09/04 12:26:33;;;;;;;0.60;0.50;;;20.70;48.80;;;;;;6038281;23;20166;-88
2022/09/04 12:29:27;;;;;;;1.15;0.55;;;20.60;48.80;;;;;;6037283;23;20258;-85
2022/09/04 12:32:26;;;;;;;0.50;0.40;;;20.70;48.90;;;;;;6051219;23;20167;-86
2022/09/04 12:35:28;;;;;;;0.40;0.40;;;20.70;49.00;;;;;;6070573;23;20469;-86
2022/09/04 12:38:27;;;;;;;0.40;0.40;;;20.60;49.00;;;;;;6077442;23;20239;-85
2022/09/04 12:41:07;;;;;;;0.50;0.50;;;20.70;49.10;;;;;;6081860;23;20218;-85
2022/09/04 12:43:53;;;;;;;0.38;0.38;;;20.70;49.10;;;;;;6105193;23;20151;-86
2022/09/04 12:46:54;;;;;;;0.30;0.30;;;20.70;49.10;;;;;;6079667;23;20167;-86
2022/09/04 12:49:40;;;;;;;0.70;0.50;;;20.70;49.00;;;;;;6108583;23;20152;-86
2022/09/04 12:52:41;;;;;;;0.45;0.40;;;20.70;49.00;;;;;;6082115;23;20491;-86
2022/09/04 12:55:18;;;;;;;0.50;0.50;;;20.70;49.00;;;;;;6078536;23;20243;-87
2022/09/04 12:58:23;;;;;;;0.50;0.50;;;20.70;49.00;;;;;;6079554;23;20188;-87
2022/09/04 13:01:17;;;;;;;0.88;0.63;;;20.70;49.10;;;;;;6127319;23;20147;-87
2022/09/04 13:04:03;;;;;;;0.85;0.40;;;20.70;49.80;;;;;;6103763;23;20508;-86
2022/09/04 13:07:10;;;;;;;3.80;0.57;;;20.70;49.10;;;;;;6133560;23;20148;-86
2022/09/04 13:09:54;;;;;;;2.17;0.70;;;20.70;49.00;;;;;;6126175;23;20231;-87
2022/09/04 13:12:48;;;;;;;0.75;0.50;;;20.70;49.00;;;;;;6102481;23;20230;-87
2022/09/04 13:15:25;;;;;;;3.40;0.70;;;20.70;49.00;;;;;;6127950;23;20160;-87
2022/09/04 13:18:33;;;;;;;3.38;1.00;;;20.80;49.00;;;;;;6102028;23;20176;-87
2022/09/04 13:21:37;;;;;;;1.60;0.80;;;20.80;49.10;;;;;;6039136;23;20181;-87
2022/09/04 13:24:31;;;;;;;6.35;0.98;;;20.80;49.20;;;;;;6031189;23;20623;-87
2022/09/04 13:27:25;;;;;;;5.85;1.05;;;20.80;49.40;;;;;;6038501;23;20641;-87
2022/09/04 13:30:01;;;;;;;3.97;0.70;;;20.80;49.50;;;;;;6061029;23;20165;-87
2022/09/04 13:33:11;;;;;;;5.78;1.15;;;20.70;49.50;;;;;;6067165;23;20161;-87
2022/09/04 13:35:57;;;;;;;2.63;0.88;;;20.80;49.70;;;;;;6067470;23;20606;-87
2022/09/04 13:38:47;;;;;;;4.68;1.00;;;20.70;49.90;;;;;;6019708;23;20235;-87
2022/09/04 13:41:54;;;;;;;1.38;0.77;;;20.80;50.20;;;;;;6043718;23;20505;-87
2022/09/04 13:44:49;;;;;;;3.70;1.00;;;20.80;50.30;;;;;;6048238;23;20537;-87
2022/09/04 13:47:19;;;;;;;9.02;1.27;;;20.70;50.50;;;;;;6019814;23;20539;-87
2022/09/04 13:49:54;;;;;;;4.20;0.93;;;20.70;50.50;;;;;;6014467;23;20614;-87
2022/09/04 13:52:28;;;;;;;1.50;0.82;;;20.70;50.60;;;;;;6009945;23;20162;-87
2022/09/04 13:55:16;;;;;;;3.92;1.00;;;20.80;51.00;;;;;;6010007;23;20158;-87
2022/09/04 13:57:58;;;;;;;5.25;0.88;;;20.80;51.10;;;;;;5987948;23;20631;-88
2022/09/04 14:00:33;;;;;;;3.85;0.93;;;20.80;51.10;;;;;;5981267;24;20243;-87
2022/09/04 14:03:10;;;;;;;4.00;0.95;;;20.80;51.40;;;;;;6000129;23;20169;-88
2022/09/04 14:05:36;;;;;;;4.47;1.00;;;20.80;51.40;;;;;;5981346;24;20247;-87
2022/09/04 14:08:11;;;;;;;4.38;1.20;;;20.80;51.40;;;;;;5981655;24;20246;-87
2022/09/04 14:10:57;;;;;;;5.55;1.10;;;20.80;51.40;;;;;;5925568;24;20352;-87
2022/09/04 14:13:41;;;;;;;4.90;1.10;;;20.80;51.40;;;;;;5925912;24;20189;-85
2022/09/04 14:16:10;;;;;;;3.90;1.02;;;20.80;51.40;;;;;;5953484;24;20188;-87
2022/09/04 14:19:19;;;;;;;2.20;1.00;;;20.80;51.40;;;;;;5931127;24;20671;-86
2022/09/04 14:22:08;;;;;;;2.90;0.70;;;20.80;51.30;;;;;;5928881;24;20245;-88
2022/09/04 14:24:57;;;;;;;4.22;1.02;;;20.80;51.20;;;;;;5945597;24;20172;-88
2022/09/04 14:27:54;;;;;;;3.85;1.33;;;20.80;51.00;;;;;;5949424;24;20156;-88
2022/09/04 14:30:23;;;;;;;4.13;1.20;;;20.80;51.00;;;;;;5908717;24;20234;-87
2022/09/04 14:33:24;;;;;;;5.75;1.38;;;20.80;50.90;;;;;;5930499;24;20196;-87
2022/09/04 14:36:39;;;;;;;1.83;0.90;;;20.80;50.90;;;;;;5963151;23;20245;-86
2022/09/04 14:39:40;;;;;;;4.03;0.85;;;20.80;50.80;;;;;;6032117;23;20694;-88